Time;durP1;ratioP1;P1;durP2;ratioP2;P2;SDS_P1;SDS_P2;PMS_P1;PMS_P2;Temp;Humidity;BMP_temperature;BMP_pressure;BME280_temperature;BME280_humidity;BME280_pressure;Samples;Min_cycle;Max_cycle;Signal;HPM_P1;HPM_P2
2022/11/05 00:10:19;;;;;;;1.10;0.90;;;6.80;99.90;;;;;;5069701;28;20454;-81
2022/11/05 00:18:16;;;;;;;0.77;0.77;;;6.80;99.90;;;;;;5075962;28;20516;-81
2022/11/05 00:20:44;;;;;;;1.13;1.03;;;6.70;99.90;;;;;;5085460;28;20461;-81
2022/11/05 00:25:57;;;;;;;2.10;1.53;;;6.70;99.90;;;;;;5080351;28;20461;-81
2022/11/05 00:28:24;;;;;;;5.63;1.93;;;6.70;99.90;;;;;;5074241;28;21009;-81
2022/11/05 00:30:53;;;;;;;1.10;1.00;;;6.80;99.90;;;;;;5080824;28;20466;-81
2022/11/05 00:33:20;;;;;;;1.57;1.23;;;6.80;99.90;;;;;;5079540;28;20902;-81
2022/11/05 00:35:47;;;;;;;1.27;1.10;;;6.80;99.90;;;;;;5084848;28;20584;-81
2022/11/05 00:38:14;;;;;;;1.03;1.03;;;6.70;99.90;;;;;;5080613;28;20462;-81
2022/11/05 00:40:41;;;;;;;1.10;1.00;;;6.80;99.90;;;;;;5081427;28;21155;-81
2022/11/05 00:45:54;;;;;;;1.37;1.00;;;6.70;99.90;;;;;;5078964;28;20619;-81
2022/11/05 00:51:06;;;;;;;2.30;1.00;;;6.80;99.90;;;;;;5082250;28;20546;-81
2022/11/05 00:53:33;;;;;;;2.93;0.70;;;6.70;99.90;;;;;;5080511;28;20523;-81
2022/11/05 00:56:00;;;;;;;0.93;0.90;;;6.80;99.90;;;;;;5075332;28;20527;-80
2022/11/05 00:58:28;;;;;;;1.50;1.03;;;6.70;99.90;;;;;;5074731;28;20466;-81
2022/11/05 01:00:58;;;;;;;2.80;0.77;;;6.70;99.90;;;;;;5076184;28;20562;-80
2022/11/05 01:03:27;;;;;;;2.20;0.77;;;6.70;99.90;;;;;;5083222;28;20802;-80
2022/11/05 01:05:56;;;;;;;5.20;1.27;;;6.70;99.90;;;;;;5083716;28;20852;-80
2022/11/05 01:08:25;;;;;;;1.80;1.20;;;6.70;99.90;;;;;;5077354;28;20531;-80
2022/11/05 01:10:54;;;;;;;1.20;1.07;;;6.70;99.90;;;;;;5079648;28;20462;-80
2022/11/05 01:13:24;;;;;;;2.20;1.37;;;6.70;99.90;;;;;;5073834;28;20553;-80
2022/11/05 01:15:52;;;;;;;2.87;1.20;;;6.60;99.90;;;;;;5074209;28;20530;-80
2022/11/05 01:18:21;;;;;;;2.40;2.13;;;6.60;99.90;;;;;;5064433;28;20475;-80
2022/11/05 01:20:48;;;;;;;1.17;1.07;;;6.50;99.90;;;;;;5079741;28;20525;-80
2022/11/05 01:23:16;;;;;;;2.60;1.27;;;6.50;99.90;;;;;;5080120;28;20482;-80
2022/11/05 01:25:44;;;;;;;1.50;1.40;;;6.50;99.90;;;;;;5081138;28;20496;-80
2022/11/05 01:28:11;;;;;;;3.23;1.20;;;6.50;99.90;;;;;;5070716;28;20562;-80
2022/11/05 01:30:38;;;;;;;1.33;1.23;;;6.40;99.90;;;;;;5072835;28;20470;-80
2022/11/05 01:33:06;;;;;;;1.73;1.13;;;6.40;99.90;;;;;;5071508;28;20559;-80
2022/11/05 01:35:34;;;;;;;2.50;0.90;;;6.40;99.90;;;;;;5070144;28;20459;-81
2022/11/05 01:38:01;;;;;;;2.60;1.57;;;6.40;99.90;;;;;;5066285;28;20492;-80
2022/11/05 01:40:28;;;;;;;1.50;1.33;;;6.50;99.90;;;;;;5074542;28;20486;-81
2022/11/05 01:42:55;;;;;;;1.70;1.00;;;6.60;99.90;;;;;;5077882;28;20578;-80
2022/11/05 01:45:24;;;;;;;4.83;1.00;;;6.60;99.90;;;;;;5065526;28;20462;-80
2022/11/05 01:48:00;;;;;;;3.77;1.77;;;6.60;99.90;;;;;;5076859;28;20462;-80
2022/11/05 01:50:52;;;;;;;3.93;1.33;;;6.50;99.90;;;;;;5069790;28;20474;-81
2022/11/05 01:53:25;;;;;;;1.40;1.30;;;6.50;99.90;;;;;;5074793;28;20822;-80
2022/11/05 01:55:57;;;;;;;1.80;1.20;;;6.60;99.90;;;;;;5071689;28;20460;-80
2022/11/05 01:58:29;;;;;;;1.57;1.10;;;6.60;99.90;;;;;;5068546;28;20463;-80
2022/11/05 02:00:57;;;;;;;2.43;0.90;;;6.70;99.90;;;;;;5065278;28;20957;-80
2022/11/05 02:03:25;;;;;;;2.57;1.57;;;6.70;99.90;;;;;;5069795;28;20572;-80
2022/11/05 02:05:56;;;;;;;2.23;1.27;;;6.60;99.90;;;;;;5071384;28;20474;-80
2022/11/05 02:08:34;;;;;;;2.33;1.40;;;6.70;99.90;;;;;;5077560;28;20548;-80
2022/11/05 02:11:01;;;;;;;2.63;1.40;;;6.60;99.90;;;;;;5071374;28;20541;-80
2022/11/05 02:13:28;;;;;;;2.60;1.30;;;6.60;99.90;;;;;;5077655;28;20462;-81
2022/11/05 02:16:03;;;;;;;1.27;1.03;;;6.50;99.90;;;;;;5080938;28;20459;-80
2022/11/05 02:18:41;;;;;;;1.00;1.00;;;6.50;99.90;;;;;;5080500;28;20542;-80
2022/11/05 02:21:37;;;;;;;0.97;0.90;;;6.50;99.90;;;;;;5073580;28;20466;-80
2022/11/05 02:24:28;;;;;;;2.43;1.10;;;6.50;99.90;;;;;;5074517;28;20541;-80
2022/11/05 02:27:18;;;;;;;2.80;0.97;;;6.40;99.90;;;;;;5075269;28;20523;-80
2022/11/05 02:30:39;;;;;;;4.83;1.10;;;6.40;99.90;;;;;;5070506;28;21010;-80
2022/11/05 02:33:31;;;;;;;0.77;0.77;;;6.40;99.90;;;;;;5074925;28;20511;-80
2022/11/05 02:36:20;;;;;;;0.83;0.83;;;6.30;99.90;;;;;;5068446;28;20528;-81
2022/11/05 02:38:58;;;;;;;1.20;1.00;;;6.30;99.90;;;;;;5078349;28;20467;-80
2022/11/05 02:41:33;;;;;;;1.90;1.10;;;6.30;99.90;;;;;;5075990;28;20601;-80
2022/11/05 02:44:12;;;;;;;0.80;0.70;;;6.30;99.90;;;;;;5076314;28;20493;-80
2022/11/05 02:46:48;;;;;;;1.70;1.60;;;6.20;99.90;;;;;;5068334;28;20454;-80
2022/11/05 02:49:25;;;;;;;1.27;1.17;;;6.20;99.90;;;;;;5076614;28;20462;-80
2022/11/05 02:51:57;;;;;;;1.93;1.07;;;6.20;99.90;;;;;;5086546;28;20508;-80
2022/11/05 02:54:29;;;;;;;1.60;1.47;;;6.30;99.90;;;;;;5075305;28;20458;-81
2022/11/05 02:56:59;;;;;;;1.27;1.10;;;6.30;99.90;;;;;;5078373;28;20534;-81
2022/11/05 02:59:25;;;;;;;3.30;1.13;;;6.30;99.90;;;;;;5081757;28;20463;-81
2022/11/05 03:01:54;;;;;;;1.53;1.40;;;6.30;99.90;;;;;;5084996;28;20526;-81
2022/11/05 03:04:23;;;;;;;5.63;1.43;;;6.30;99.90;;;;;;5086050;28;20486;-80
2022/11/05 03:07:11;;;;;;;1.73;1.67;;;6.40;99.90;;;;;;5081790;28;20956;-81
2022/11/05 03:10:09;;;;;;;2.13;1.80;;;6.40;99.90;;;;;;5083834;28;20461;-81
2022/11/05 03:12:46;;;;;;;1.40;1.30;;;6.50;99.90;;;;;;5074248;28;20461;-81
2022/11/05 03:15:24;;;;;;;1.40;1.30;;;6.50;99.90;;;;;;5082752;28;20492;-81
2022/11/05 03:18:02;;;;;;;1.17;1.07;;;6.40;99.90;;;;;;5087218;28;20518;-81
2022/11/05 03:20:37;;;;;;;3.80;1.83;;;6.40;99.90;;;;;;5076254;28;20573;-81
2022/11/05 03:23:11;;;;;;;9.63;2.20;;;6.40;99.90;;;;;;5085374;28;20554;-81
2022/11/05 03:25:43;;;;;;;2.50;1.70;;;6.40;99.90;;;;;;5076086;28;20458;-81
2022/11/05 03:28:13;;;;;;;2.20;1.97;;;6.40;99.90;;;;;;5082754;28;20809;-81
2022/11/05 03:30:42;;;;;;;4.30;1.97;;;6.40;99.90;;;;;;5075895;28;20462;-81
2022/11/05 03:33:16;;;;;;;1.10;1.00;;;6.40;99.90;;;;;;5068732;28;20600;-81
2022/11/05 03:35:48;;;;;;;1.70;1.60;;;6.30;99.90;;;;;;5075875;28;20860;-81
2022/11/05 03:38:21;;;;;;;1.33;1.13;;;6.40;99.90;;;;;;5077124;28;20523;-81
2022/11/05 03:40:52;;;;;;;1.00;0.90;;;6.40;99.90;;;;;;5075912;28;20519;-81
2022/11/05 03:43:22;;;;;;;1.97;1.47;;;6.40;99.90;;;;;;5085615;28;20478;-81
2022/11/05 03:45:55;;;;;;;2.30;1.47;;;6.30;99.90;;;;;;5077914;28;20509;-81
2022/11/05 03:48:27;;;;;;;2.00;1.80;;;6.40;99.90;;;;;;5080436;28;20455;-81
2022/11/05 03:51:02;;;;;;;1.50;1.37;;;6.40;99.90;;;;;;5079185;28;20471;-81
2022/11/05 03:53:33;;;;;;;1.77;1.60;;;6.30;99.90;;;;;;5077211;28;20494;-81
2022/11/05 03:56:05;;;;;;;2.00;1.43;;;6.20;99.90;;;;;;5079092;28;20985;-81
2022/11/05 03:58:33;;;;;;;3.40;1.93;;;6.20;99.90;;;;;;5073351;28;20495;-81
2022/11/05 04:01:01;;;;;;;4.07;2.40;;;6.20;99.90;;;;;;5085044;28;20512;-81
2022/11/05 04:03:34;;;;;;;2.63;1.80;;;6.20;99.90;;;;;;5076829;28;20564;-81
2022/11/05 04:14:15;;;;;;;2.53;2.33;;;6.40;99.90;;;;;;5074815;28;20458;-81
2022/11/05 04:24:56;;;;;;;2.30;1.77;;;6.30;99.90;;;;;;5081223;28;20627;-82
2022/11/05 04:27:23;;;;;;;3.00;2.50;;;6.40;99.90;;;;;;5080428;28;20515;-82
2022/11/05 04:32:35;;;;;;;4.10;2.80;;;6.40;99.90;;;;;;5078018;28;20502;-81
2022/11/05 04:35:03;;;;;;;2.93;2.57;;;6.40;99.90;;;;;;5079871;28;20459;-82
2022/11/05 04:37:30;;;;;;;3.60;2.33;;;6.40;99.90;;;;;;5073538;28;20972;-81
2022/11/05 04:39:57;;;;;;;2.90;2.60;;;6.30;99.90;;;;;;5074397;28;20519;-80
2022/11/05 04:42:24;;;;;;;3.50;3.20;;;6.20;99.90;;;;;;5082329;28;20517;-80
2022/11/05 04:44:51;;;;;;;2.17;2.07;;;6.20;99.90;;;;;;5068120;28;20541;-81
2022/11/05 04:47:18;;;;;;;3.30;2.60;;;6.10;99.90;;;;;;5079694;28;20486;-80
2022/11/05 04:49:45;;;;;;;2.60;2.13;;;6.00;99.90;;;;;;5073315;28;20467;-81
2022/11/05 04:52:13;;;;;;;3.07;2.73;;;5.90;99.90;;;;;;5078063;28;20905;-80
2022/11/05 04:54:40;;;;;;;3.20;2.40;;;5.90;99.90;;;;;;5069018;28;20852;-81
2022/11/05 04:57:08;;;;;;;3.17;2.33;;;5.90;99.90;;;;;;5081607;28;20609;-80
2022/11/05 04:59:34;;;;;;;2.10;2.00;;;5.80;99.90;;;;;;5082254;28;20459;-80
2022/11/05 05:02:01;;;;;;;2.70;2.50;;;5.80;99.90;;;;;;5077887;28;20470;-80
2022/11/05 05:04:29;;;;;;;2.73;2.53;;;5.80;99.90;;;;;;5078563;28;20562;-80
2022/11/05 05:06:56;;;;;;;2.07;1.70;;;5.80;99.90;;;;;;5075240;28;20464;-81
2022/11/05 05:09:25;;;;;;;3.57;1.90;;;5.80;99.90;;;;;;5072781;28;20460;-81
2022/11/05 05:11:51;;;;;;;2.10;1.90;;;5.90;99.90;;;;;;5069833;28;20525;-80
2022/11/05 05:14:18;;;;;;;4.10;2.27;;;5.90;99.90;;;;;;5073459;28;20493;-80
2022/11/05 05:16:45;;;;;;;2.33;2.10;;;6.00;99.90;;;;;;5071957;28;20853;-81
2022/11/05 05:19:12;;;;;;;3.23;1.80;;;6.00;99.90;;;;;;5079038;28;20518;-81
2022/11/05 05:21:38;;;;;;;6.07;2.73;;;6.00;99.90;;;;;;5076466;28;20512;-80
2022/11/05 05:24:07;;;;;;;2.70;1.73;;;6.00;99.90;;;;;;5080210;28;20491;-81
2022/11/05 05:26:36;;;;;;;2.80;2.10;;;6.10;99.90;;;;;;5076415;28;20462;-81
2022/11/05 05:29:04;;;;;;;3.33;2.30;;;6.10;99.90;;;;;;5083976;28;21015;-81
2022/11/05 05:31:31;;;;;;;3.17;1.87;;;6.10;99.90;;;;;;5078516;28;20460;-81
2022/11/05 05:33:58;;;;;;;1.70;1.60;;;6.10;99.90;;;;;;5079932;28;20799;-81
2022/11/05 05:36:26;;;;;;;2.90;1.90;;;6.10;99.90;;;;;;5075223;28;20467;-81
2022/11/05 05:38:53;;;;;;;1.50;1.40;;;6.20;99.90;;;;;;5071593;28;20462;-81
2022/11/05 05:41:21;;;;;;;3.00;2.30;;;6.20;99.90;;;;;;5068560;28;20458;-81
2022/11/05 05:43:49;;;;;;;4.87;2.77;;;6.20;99.90;;;;;;5070168;28;20518;-81
2022/11/05 05:46:18;;;;;;;4.27;2.40;;;6.30;99.90;;;;;;5073668;28;20500;-81
2022/11/05 05:48:49;;;;;;;2.10;1.90;;;6.30;99.90;;;;;;5076998;28;20606;-81
2022/11/05 05:51:16;;;;;;;1.97;1.87;;;6.30;99.90;;;;;;5073883;28;20470;-80
2022/11/05 05:53:43;;;;;;;3.07;2.77;;;6.30;99.90;;;;;;5080951;28;20470;-81
2022/11/05 05:56:13;;;;;;;2.10;1.80;;;6.30;99.90;;;;;;5074067;28;20459;-81
2022/11/05 05:58:41;;;;;;;2.77;2.00;;;6.30;99.90;;;;;;5074651;28;20464;-81
2022/11/05 06:01:11;;;;;;;2.60;2.40;;;6.30;99.90;;;;;;5072053;28;20471;-81
2022/11/05 06:03:39;;;;;;;2.83;1.70;;;6.20;99.90;;;;;;5083003;28;20483;-81
2022/11/05 06:06:07;;;;;;;1.93;1.60;;;6.20;99.90;;;;;;5078300;28;20469;-81
2022/11/05 06:08:34;;;;;;;2.00;1.90;;;6.20;99.90;;;;;;5076216;28;20521;-80
2022/11/05 06:11:02;;;;;;;1.77;1.10;;;6.10;99.90;;;;;;5072203;28;20515;-81
2022/11/05 06:13:30;;;;;;;2.50;1.10;;;6.20;99.90;;;;;;5065836;28;20512;-81
2022/11/05 06:16:01;;;;;;;1.73;1.63;;;6.20;99.90;;;;;;5065991;28;20463;-81
2022/11/05 06:18:30;;;;;;;1.57;1.43;;;6.20;99.90;;;;;;5068066;28;20463;-80
2022/11/05 06:21:01;;;;;;;1.40;1.30;;;6.20;99.90;;;;;;5068226;28;20524;-81
2022/11/05 06:23:31;;;;;;;2.50;1.57;;;6.10;99.90;;;;;;5072296;28;20567;-81
2022/11/05 06:26:01;;;;;;;1.10;1.00;;;6.20;99.90;;;;;;5065584;28;20538;-81
2022/11/05 06:28:28;;;;;;;1.63;1.53;;;6.20;99.90;;;;;;5071922;28;20490;-81
2022/11/05 06:30:55;;;;;;;2.23;1.20;;;6.20;99.90;;;;;;5073906;28;20528;-81
2022/11/05 06:33:22;;;;;;;1.10;1.00;;;6.20;99.90;;;;;;5077045;28;20443;-81
2022/11/05 06:35:50;;;;;;;2.10;1.27;;;6.20;99.90;;;;;;5073234;28;20458;-80
2022/11/05 06:38:17;;;;;;;2.33;1.13;;;6.30;99.90;;;;;;5078681;28;20460;-81
2022/11/05 06:40:44;;;;;;;1.40;1.30;;;6.30;99.90;;;;;;5076753;28;20478;-81
2022/11/05 06:43:12;;;;;;;2.33;1.10;;;6.30;99.90;;;;;;5082640;28;20806;-81
2022/11/05 06:45:39;;;;;;;0.90;0.90;;;6.40;99.90;;;;;;5070618;28;20499;-82
2022/11/05 06:48:06;;;;;;;1.20;1.00;;;6.40;99.90;;;;;;5068588;28;20496;-81
2022/11/05 06:50:33;;;;;;;1.17;0.90;;;6.40;99.90;;;;;;5069793;28;20472;-81
2022/11/05 06:53:05;;;;;;;2.00;1.43;;;6.50;99.90;;;;;;5076973;28;21211;-81
2022/11/05 06:55:32;;;;;;;1.63;1.27;;;6.50;99.90;;;;;;5072825;28;20451;-81
2022/11/05 06:57:59;;;;;;;1.70;1.30;;;6.50;99.90;;;;;;5070028;28;20466;-81
2022/11/05 07:00:26;;;;;;;1.30;0.97;;;6.50;99.90;;;;;;5077146;28;20532;-81
2022/11/05 07:02:55;;;;;;;1.27;1.17;;;6.60;99.90;;;;;;5069690;28;20538;-81
2022/11/05 07:05:23;;;;;;;1.07;0.90;;;6.60;99.90;;;;;;5078783;28;20482;-81
2022/11/05 07:07:50;;;;;;;0.97;0.90;;;6.60;99.90;;;;;;5070419;28;20522;-81
2022/11/05 07:10:19;;;;;;;1.70;1.00;;;6.70;99.90;;;;;;5076239;28;20526;-81
2022/11/05 07:12:46;;;;;;;3.60;2.03;;;6.70;99.90;;;;;;5072449;28;20486;-81
2022/11/05 07:15:13;;;;;;;1.73;1.37;;;6.70;99.90;;;;;;5066270;28;20481;-81
2022/11/05 07:17:40;;;;;;;1.50;1.13;;;6.70;99.90;;;;;;5066097;28;20443;-81
2022/11/05 07:20:09;;;;;;;4.30;3.03;;;6.70;99.90;;;;;;5066872;28;20475;-81
2022/11/05 07:22:37;;;;;;;18.07;10.03;;;6.60;99.90;;;;;;5068836;28;20812;-82
2022/11/05 07:25:04;;;;;;;2.80;1.20;;;6.70;99.90;;;;;;5075860;28;20532;-81
2022/11/05 07:27:37;;;;;;;10.50;8.30;;;6.70;99.90;;;;;;5069411;28;20890;-81
2022/11/05 07:30:05;;;;;;;1.57;0.70;;;6.70;99.90;;;;;;5076569;28;20498;-81
2022/11/05 07:32:37;;;;;;;1.80;1.13;;;6.80;99.90;;;;;;5079225;28;20492;-81
2022/11/05 07:35:04;;;;;;;3.40;2.10;;;6.80;99.90;;;;;;5077212;28;20527;-82
2022/11/05 07:37:31;;;;;;;1.53;1.07;;;6.90;99.90;;;;;;5079631;28;20469;-82
2022/11/05 07:39:58;;;;;;;1.03;0.80;;;6.90;99.90;;;;;;5088403;28;20829;-82
2022/11/05 07:42:25;;;;;;;3.30;1.20;;;6.90;99.90;;;;;;5085937;28;20494;-83
2022/11/05 07:44:54;;;;;;;3.57;1.57;;;7.00;99.90;;;;;;5079101;28;20516;-83
2022/11/05 07:47:21;;;;;;;2.63;1.50;;;7.00;99.90;;;;;;5075748;28;20468;-83
2022/11/05 07:49:47;;;;;;;3.93;1.20;;;7.10;99.90;;;;;;5073113;28;20465;-81
2022/11/05 07:52:14;;;;;;;1.73;1.60;;;7.10;99.90;;;;;;5079596;28;20549;-82
2022/11/05 07:54:41;;;;;;;2.23;1.27;;;7.10;99.90;;;;;;5080738;28;20553;-82
2022/11/05 07:57:08;;;;;;;2.27;1.63;;;7.10;99.90;;;;;;5080274;28;21028;-81
2022/11/05 07:59:36;;;;;;;1.83;1.13;;;7.20;99.90;;;;;;5075749;28;20493;-82
2022/11/05 08:02:04;;;;;;;4.07;1.73;;;7.20;99.90;;;;;;5076755;28;20512;-82
2022/11/05 08:04:31;;;;;;;3.93;3.50;;;7.20;99.90;;;;;;5073945;28;20989;-82
2022/11/05 08:06:58;;;;;;;5.07;2.73;;;7.30;99.90;;;;;;5072215;28;20458;-80
2022/11/05 08:09:25;;;;;;;2.70;1.63;;;7.30;99.90;;;;;;5068410;28;20520;-80
2022/11/05 08:11:53;;;;;;;2.20;1.60;;;7.30;99.90;;;;;;5070387;28;20466;-80
2022/11/05 08:14:20;;;;;;;3.63;2.07;;;7.40;99.90;;;;;;5072789;28;20490;-80
2022/11/05 08:16:47;;;;;;;2.90;1.50;;;7.40;99.90;;;;;;5067380;28;20977;-80
2022/11/05 08:19:15;;;;;;;1.40;1.30;;;7.60;99.90;;;;;;5069643;28;20494;-80
2022/11/05 08:21:42;;;;;;;4.43;2.80;;;7.60;99.90;;;;;;5067387;28;20463;-80
2022/11/05 08:24:10;;;;;;;8.10;6.23;;;7.60;99.90;;;;;;5065816;28;20498;-80
2022/11/05 08:26:37;;;;;;;9.90;8.90;;;7.60;99.90;;;;;;5064836;28;20530;-81
2022/11/05 08:29:04;;;;;;;8.63;7.63;;;7.60;99.90;;;;;;5076743;28;20804;-80
2022/11/05 08:31:31;;;;;;;10.33;7.13;;;7.70;99.90;;;;;;5070657;28;20496;-81
2022/11/05 08:33:58;;;;;;;11.20;7.43;;;7.60;99.90;;;;;;5072687;28;20474;-81
2022/11/05 08:36:27;;;;;;;12.20;8.00;;;7.70;99.90;;;;;;5072967;28;20899;-81
2022/11/05 08:38:54;;;;;;;21.13;13.50;;;7.80;99.90;;;;;;5069937;28;20471;-81
2022/11/05 08:41:21;;;;;;;17.80;12.47;;;7.70;99.90;;;;;;5069995;28;20471;-84
2022/11/05 08:43:48;;;;;;;6.43;5.07;;;7.70;99.90;;;;;;5067273;28;20548;-81
2022/11/05 08:46:15;;;;;;;6.17;3.90;;;7.70;99.90;;;;;;5070356;28;21010;-81
2022/11/05 08:48:42;;;;;;;5.33;3.77;;;7.70;99.90;;;;;;5063632;28;20463;-81
2022/11/05 08:51:09;;;;;;;3.93;3.40;;;7.70;99.90;;;;;;5081534;28;20456;-81
2022/11/05 08:53:38;;;;;;;1.53;1.43;;;7.80;99.90;;;;;;5078721;28;20459;-81
2022/11/05 08:56:06;;;;;;;1.80;1.23;;;7.80;99.90;;;;;;5071290;28;20489;-82
2022/11/05 08:58:33;;;;;;;1.53;1.43;;;7.90;99.90;;;;;;5067389;28;20587;-82
2022/11/05 09:01:00;;;;;;;1.30;1.00;;;8.00;99.90;;;;;;5065988;28;20542;-82
2022/11/05 09:03:27;;;;;;;1.90;1.77;;;8.00;99.90;;;;;;5076319;28;20514;-82
2022/11/05 09:05:54;;;;;;;8.33;1.73;;;8.00;99.90;;;;;;5070245;28;20526;-83
2022/11/05 09:08:21;;;;;;;2.63;2.43;;;8.00;99.90;;;;;;5065780;28;20460;-83
2022/11/05 09:10:49;;;;;;;4.33;2.23;;;8.00;99.90;;;;;;5073643;28;20836;-83
2022/11/05 09:13:16;;;;;;;3.03;2.40;;;8.00;99.90;;;;;;5069311;28;20551;-83
2022/11/05 09:15:43;;;;;;;3.20;3.00;;;8.10;99.90;;;;;;5069859;28;21004;-83
2022/11/05 09:18:13;;;;;;;2.77;2.57;;;8.00;99.90;;;;;;5078494;28;20831;-83
2022/11/05 09:20:40;;;;;;;4.60;3.30;;;8.10;99.90;;;;;;5069948;28;20934;-82
2022/11/05 09:23:08;;;;;;;2.70;2.03;;;8.20;99.90;;;;;;5073129;28;20508;-82
2022/11/05 09:25:35;;;;;;;3.43;2.40;;;8.20;99.90;;;;;;5075874;28;21252;-82
2022/11/05 09:28:12;;;;;;;4.93;4.00;;;8.30;99.90;;;;;;5071317;28;20584;-82
2022/11/05 09:30:42;;;;;;;5.10;3.90;;;8.40;99.90;;;;;;5075614;28;20465;-82
2022/11/05 09:33:10;;;;;;;5.37;4.03;;;8.50;99.90;;;;;;5063759;28;20448;-82
2022/11/05 09:35:39;;;;;;;4.07;3.07;;;8.60;99.90;;;;;;5065693;28;20448;-82
2022/11/05 09:38:06;;;;;;;3.23;2.93;;;8.70;99.90;;;;;;5065026;28;20530;-81
2022/11/05 09:40:39;;;;;;;3.90;3.53;;;8.80;99.90;;;;;;5065937;28;20451;-82
2022/11/05 09:43:07;;;;;;;5.70;4.57;;;9.00;99.90;;;;;;5079829;28;20470;-82
2022/11/05 09:45:36;;;;;;;4.43;3.13;;;9.00;99.90;;;;;;5068004;28;20588;-82
2022/11/05 09:48:10;;;;;;;5.27;4.87;;;9.00;99.90;;;;;;5077233;28;21067;-82
2022/11/05 09:50:41;;;;;;;3.57;3.27;;;9.10;99.90;;;;;;5076389;28;20474;-82
2022/11/05 09:53:10;;;;;;;3.40;3.10;;;9.30;99.90;;;;;;5075237;28;20838;-82
2022/11/05 09:55:41;;;;;;;6.13;4.20;;;9.00;99.90;;;;;;5077397;28;21147;-81
2022/11/05 09:58:16;;;;;;;4.70;3.70;;;9.00;99.90;;;;;;5071867;28;20525;-80
2022/11/05 10:00:47;;;;;;;4.90;4.50;;;9.00;99.90;;;;;;5067238;28;20450;-80
2022/11/05 10:03:19;;;;;;;5.80;5.30;;;9.00;99.90;;;;;;5070625;28;21343;-82
2022/11/05 10:05:48;;;;;;;5.87;5.27;;;8.90;99.90;;;;;;5068434;28;20596;-75
2022/11/05 10:08:20;;;;;;;5.70;4.30;;;9.00;99.90;;;;;;5070782;28;20456;-75
2022/11/05 10:10:50;;;;;;;6.63;3.90;;;9.00;99.90;;;;;;5067797;28;20467;-90
2022/11/05 10:13:24;;;;;;;8.30;7.30;;;9.10;99.90;;;;;;5068953;28;20471;-78
2022/11/05 10:16:00;;;;;;;15.67;9.60;;;9.10;99.90;;;;;;5066679;28;20490;-77
2022/11/05 10:18:32;;;;;;;7.33;6.37;;;9.00;99.90;;;;;;5075387;28;20956;-78
2022/11/05 10:20:59;;;;;;;4.20;3.80;;;9.10;99.90;;;;;;5072136;28;20957;-78
2022/11/05 10:23:27;;;;;;;6.10;5.20;;;9.10;99.90;;;;;;5076630;28;20555;-78
2022/11/05 10:25:57;;;;;;;5.77;5.10;;;9.30;99.90;;;;;;5073546;28;20507;-77
2022/11/05 10:28:27;;;;;;;6.10;5.50;;;9.40;99.90;;;;;;5067196;28;20487;-77
2022/11/05 10:31:00;;;;;;;7.40;5.60;;;9.40;99.90;;;;;;5068784;28;20798;-77
2022/11/05 10:33:32;;;;;;;6.30;5.60;;;9.50;99.90;;;;;;5061833;28;20486;-77
2022/11/05 10:36:04;;;;;;;6.57;5.93;;;9.50;99.90;;;;;;5066731;28;20982;-80
2022/11/05 10:38:32;;;;;;;5.67;5.17;;;9.60;99.90;;;;;;5070174;28;20467;-78
2022/11/05 10:41:25;;;;;;;3.83;3.53;;;9.60;99.90;;;;;;5063382;28;21068;-78
2022/11/05 10:43:56;;;;;;;7.30;5.43;;;9.40;99.90;;;;;;5067165;28;21250;-78
2022/11/05 10:46:34;;;;;;;5.40;4.37;;;9.40;99.90;;;;;;5066163;28;20514;-78
2022/11/05 10:49:17;;;;;;;6.17;5.57;;;9.60;99.90;;;;;;5070728;28;20467;-78
2022/11/05 10:51:44;;;;;;;5.80;4.97;;;9.70;99.90;;;;;;5068765;28;20466;-78
2022/11/05 10:54:16;;;;;;;8.20;5.63;;;9.90;99.90;;;;;;5066710;28;20482;-78
2022/11/05 10:56:44;;;;;;;12.03;4.97;;;9.80;99.90;;;;;;5066710;28;20462;-78
2022/11/05 10:59:21;;;;;;;5.10;4.67;;;9.80;99.90;;;;;;5065411;28;20459;-78
2022/11/05 11:01:57;;;;;;;5.20;4.70;;;9.70;99.90;;;;;;5064565;28;20482;-78
2022/11/05 11:04:25;;;;;;;5.43;5.03;;;9.80;99.90;;;;;;5066414;28;20554;-78
2022/11/05 11:06:54;;;;;;;5.63;5.00;;;9.60;99.90;;;;;;5066256;28;20531;-77
2022/11/05 11:09:24;;;;;;;5.27;4.83;;;9.80;99.90;;;;;;5079868;28;20971;-76
2022/11/05 11:12:00;;;;;;;9.47;5.60;;;9.80;99.90;;;;;;5070745;28;20482;-76
2022/11/05 11:14:27;;;;;;;6.00;5.20;;;9.80;99.90;;;;;;5076385;28;20490;-76
2022/11/05 11:17:14;;;;;;;6.83;6.23;;;9.60;99.90;;;;;;5078314;28;20461;-76
2022/11/05 11:19:41;;;;;;;5.57;5.07;;;9.60;99.90;;;;;;5068795;28;20464;-76
2022/11/05 11:22:17;;;;;;;6.80;5.90;;;9.70;99.90;;;;;;5070135;28;20538;-78
2022/11/05 11:24:46;;;;;;;7.43;5.33;;;9.60;99.90;;;;;;5068795;28;20867;-76
2022/11/05 11:27:16;;;;;;;6.13;5.60;;;9.80;99.90;;;;;;5066687;28;20478;-76
2022/11/05 11:29:48;;;;;;;6.63;6.10;;;9.70;99.90;;;;;;5064817;28;21231;-76
2022/11/05 11:32:19;;;;;;;5.93;5.40;;;9.60;99.90;;;;;;5070428;28;20490;-75
2022/11/05 11:34:49;;;;;;;4.90;4.30;;;9.60;99.90;;;;;;5065106;28;20513;-75
2022/11/05 11:37:19;;;;;;;4.80;4.40;;;9.40;99.90;;;;;;5069218;28;20459;-78
2022/11/05 11:39:49;;;;;;;5.00;4.57;;;9.30;99.90;;;;;;5069907;28;20464;-77
2022/11/05 11:42:21;;;;;;;4.70;4.30;;;9.40;99.90;;;;;;5068530;28;20556;-77
2022/11/05 11:44:50;;;;;;;3.80;3.57;;;9.40;99.90;;;;;;5063713;28;20448;-77
2022/11/05 11:47:20;;;;;;;4.97;4.13;;;9.30;99.90;;;;;;5062827;28;20486;-77
2022/11/05 11:49:51;;;;;;;4.10;3.57;;;9.40;99.90;;;;;;5074779;28;20446;-77
2022/11/05 11:52:25;;;;;;;5.10;4.53;;;9.50;99.90;;;;;;5078246;28;20459;-77
2022/11/05 11:54:52;;;;;;;6.40;4.97;;;9.50;99.90;;;;;;5071890;28;20546;-78
2022/11/05 11:57:24;;;;;;;5.70;5.30;;;9.60;99.90;;;;;;5077430;28;20470;-77
2022/11/05 11:59:52;;;;;;;4.60;4.20;;;9.60;99.90;;;;;;5064085;28;20455;-77
2022/11/05 12:02:51;;;;;;;5.67;5.17;;;9.50;99.90;;;;;;5071897;28;20857;-77
2022/11/05 12:05:31;;;;;;;5.73;5.10;;;9.50;99.90;;;;;;5069118;28;20588;-77
2022/11/05 12:08:07;;;;;;;5.70;5.20;;;9.60;99.90;;;;;;5071985;28;22370;-77
2022/11/05 12:10:50;;;;;;;6.10;5.60;;;9.50;99.90;;;;;;5064543;28;20527;-77
2022/11/05 12:13:47;;;;;;;6.07;5.57;;;9.60;99.90;;;;;;5067784;28;20463;-77
2022/11/05 12:16:22;;;;;;;7.57;6.53;;;9.40;99.90;;;;;;5063815;28;20545;-78
2022/11/05 12:18:58;;;;;;;8.10;6.00;;;9.40;99.90;;;;;;5065512;28;20479;-77
2022/11/05 12:21:34;;;;;;;7.53;6.83;;;9.40;99.90;;;;;;5075931;28;20504;-77
2022/11/05 12:24:20;;;;;;;7.00;6.30;;;9.50;99.90;;;;;;5076835;28;20516;-77
2022/11/05 12:27:10;;;;;;;9.80;7.40;;;9.50;99.90;;;;;;5063885;28;20582;-78
2022/11/05 12:29:58;;;;;;;11.43;8.80;;;9.60;99.90;;;;;;5083549;28;20489;-77
2022/11/05 12:32:42;;;;;;;8.33;7.50;;;9.70;99.90;;;;;;5071011;28;20541;-77
2022/11/05 12:35:23;;;;;;;7.97;7.17;;;9.50;99.90;;;;;;5069464;28;20470;-77
2022/11/05 12:38:00;;;;;;;11.20;10.07;;;9.40;99.90;;;;;;5070812;28;20486;-77
2022/11/05 12:40:52;;;;;;;7.47;6.67;;;9.30;99.90;;;;;;5066948;28;20490;-76
2022/11/05 12:43:30;;;;;;;7.10;6.40;;;9.30;99.90;;;;;;5067259;28;20484;-77
2022/11/05 12:46:02;;;;;;;9.67;7.50;;;9.30;99.90;;;;;;5067872;28;20514;-77
2022/11/05 12:48:48;;;;;;;7.17;6.57;;;9.20;99.90;;;;;;5063200;28;20474;-77
2022/11/05 12:51:30;;;;;;;7.57;6.93;;;9.20;99.90;;;;;;5068338;28;20487;-77
2022/11/05 12:54:20;;;;;;;7.70;6.97;;;9.20;99.90;;;;;;5065387;28;21142;-79
2022/11/05 12:56:51;;;;;;;6.67;6.13;;;9.20;99.90;;;;;;5065822;28;20455;-78
2022/11/05 12:59:24;;;;;;;6.20;5.70;;;9.30;99.90;;;;;;5065664;28;20571;-77
2022/11/05 13:01:56;;;;;;;5.47;5.03;;;9.40;99.90;;;;;;5072806;28;20494;-77
2022/11/05 13:04:35;;;;;;;6.27;5.80;;;9.40;99.90;;;;;;5070190;28;20491;-76
2022/11/05 13:07:07;;;;;;;6.60;4.87;;;9.50;99.90;;;;;;5065515;28;20479;-76
2022/11/05 13:09:40;;;;;;;6.80;5.90;;;9.40;99.90;;;;;;5077412;28;20482;-76
2022/11/05 13:12:10;;;;;;;7.23;6.30;;;9.50;99.90;;;;;;5065759;28;21377;-76
2022/11/05 13:14:44;;;;;;;6.77;6.07;;;9.60;99.90;;;;;;5064601;28;20529;-77
2022/11/05 13:17:14;;;;;;;7.37;6.63;;;9.50;99.90;;;;;;5062305;28;20499;-77
2022/11/05 13:19:48;;;;;;;9.53;8.53;;;9.40;99.90;;;;;;5064119;28;20471;-78
2022/11/05 13:22:25;;;;;;;7.40;6.00;;;9.40;99.90;;;;;;5064560;28;20549;-77
2022/11/05 13:24:57;;;;;;;6.97;6.20;;;9.30;99.90;;;;;;5065682;28;20499;-77
2022/11/05 13:27:43;;;;;;;5.90;5.30;;;9.30;99.90;;;;;;5067370;28;20573;-77
2022/11/05 13:30:15;;;;;;;7.73;6.37;;;9.40;99.90;;;;;;5069279;28;20572;-77
2022/11/05 13:32:45;;;;;;;6.53;6.03;;;9.30;99.90;;;;;;5065235;28;20537;-78
2022/11/05 13:35:17;;;;;;;7.10;6.17;;;9.30;99.90;;;;;;5061653;28;20617;-77
2022/11/05 13:40:44;;;;;;;6.27;5.27;;;9.20;99.90;;;;;;5065186;28;20621;-77
2022/11/05 13:43:42;;;;;;;6.73;6.03;;;9.20;99.90;;;;;;5059503;28;20486;-78
2022/11/05 13:46:32;;;;;;;7.30;5.87;;;9.20;99.90;;;;;;5042467;28;20868;-78
2022/11/05 13:49:31;;;;;;;7.47;6.10;;;9.20;99.90;;;;;;5060086;28;20517;-78
2022/11/05 13:52:12;;;;;;;5.67;5.20;;;9.20;99.90;;;;;;5062195;28;20498;-77
2022/11/05 13:55:07;;;;;;;11.20;5.30;;;9.20;99.90;;;;;;5061968;28;20570;-78
2022/11/05 13:57:55;;;;;;;5.57;5.07;;;9.20;99.90;;;;;;5061525;28;20544;-78
2022/11/05 14:00:23;;;;;;;6.00;5.20;;;9.20;99.90;;;;;;5070976;28;20891;-77
2022/11/05 14:02:54;;;;;;;7.90;5.17;;;9.20;99.90;;;;;;5062751;28;20575;-78